Time;durP1;ratioP1;P1;durP2;ratioP2;P2;SDS_P1;SDS_P2;PMS_P1;PMS_P2;Temp;Humidity;BMP_temperature;BMP_pressure;BME280_temperature;BME280_humidity;BME280_pressure;Samples;Min_cycle;Max_cycle;Signal;HPM_P1;HPM_P2
2023/09/15 00:00:23;;;;;;;3.00;2.70;;;;;;;;;;4993239;28;20185;-48
2023/09/15 00:02:48;;;;;;;3.10;2.55;;;;;;;;;;4992741;28;20173;-48
2023/09/15 00:05:15;;;;;;;2.50;2.30;;;;;;;;;;4991384;28;20200;-48
2023/09/15 00:07:41;;;;;;;2.78;2.58;;;;;;;;;;5006058;28;20180;-48
2023/09/15 00:10:11;;;;;;;2.70;2.50;;;;;;;;;;4995903;28;20181;-48
2023/09/15 00:12:38;;;;;;;2.50;2.30;;;;;;;;;;4989181;28;20181;-48
2023/09/15 00:15:07;;;;;;;3.53;2.40;;;;;;;;;;4995774;28;20227;-48
2023/09/15 00:17:34;;;;;;;2.55;2.25;;;;;;;;;;4990744;28;20181;-48
2023/09/15 00:20:00;;;;;;;2.40;2.20;;;;;;;;;;4989482;28;20272;-48
2023/09/15 00:22:26;;;;;;;2.40;2.20;;;;;;;;;;4995894;28;20268;-48
2023/09/15 00:24:55;;;;;;;2.67;2.15;;;;;;;;;;4995870;28;20301;-48
2023/09/15 00:27:21;;;;;;;2.53;2.08;;;;;;;;;;4996362;28;20181;-48
2023/09/15 00:29:47;;;;;;;3.17;2.55;;;;;;;;;;4988644;28;20215;-48
2023/09/15 00:32:13;;;;;;;2.92;2.20;;;;;;;;;;4988051;28;20462;-48
2023/09/15 00:34:39;;;;;;;2.42;2.22;;;;;;;;;;4995854;28;20553;-48
2023/09/15 00:37:05;;;;;;;2.25;1.83;;;;;;;;;;4995742;28;20197;-48
2023/09/15 00:39:31;;;;;;;2.13;1.92;;;;;;;;;;4992015;28;20189;-48
2023/09/15 00:41:57;;;;;;;1.88;1.77;;;;;;;;;;4994689;28;20568;-48
2023/09/15 00:44:23;;;;;;;3.45;2.30;;;;;;;;;;4986294;28;20233;-48
2023/09/15 00:46:49;;;;;;;2.40;2.20;;;;;;;;;;5007908;28;20177;-48
2023/09/15 00:49:15;;;;;;;2.28;2.08;;;;;;;;;;4997760;28;20235;-48
2023/09/15 00:51:41;;;;;;;2.65;2.22;;;;;;;;;;4995091;28;20189;-48
2023/09/15 00:54:08;;;;;;;2.35;2.13;;;;;;;;;;4994437;28;20568;-48
2023/09/15 00:56:34;;;;;;;2.03;1.83;;;;;;;;;;4995948;28;20216;-48
2023/09/15 00:59:00;;;;;;;2.95;2.17;;;;;;;;;;5005381;28;20593;-48
2023/09/15 01:01:26;;;;;;;2.30;2.10;;;;;;;;;;4990309;28;20189;-48
2023/09/15 01:03:53;;;;;;;2.15;1.95;;;;;;;;;;4994953;28;20221;-48
2023/09/15 01:06:19;;;;;;;2.83;2.05;;;;;;;;;;4994968;28;20457;-48
2023/09/15 01:08:47;;;;;;;2.40;2.20;;;;;;;;;;4993144;28;20193;-48
2023/09/15 01:11:13;;;;;;;3.28;2.20;;;;;;;;;;4991683;28;20177;-48
2023/09/15 01:13:39;;;;;;;2.67;2.20;;;;;;;;;;4993987;28;20573;-48
2023/09/15 01:16:09;;;;;;;2.85;2.13;;;;;;;;;;4987125;28;20205;-48
2023/09/15 01:18:43;;;;;;;2.25;2.05;;;;;;;;;;4988366;28;20476;-48
2023/09/15 01:21:32;;;;;;;2.63;1.92;;;;;;;;;;4991843;28;20197;-48
2023/09/15 01:24:11;;;;;;;2.42;2.22;;;;;;;;;;4992886;28;20217;-48
2023/09/15 01:26:59;;;;;;;2.15;1.95;;;;;;;;;;5004726;28;20176;-48
2023/09/15 01:29:39;;;;;;;1.83;1.70;;;;;;;;;;4994361;28;20178;-48
2023/09/15 01:32:07;;;;;;;2.17;1.98;;;;;;;;;;4988751;28;20256;-48
2023/09/15 01:34:35;;;;;;;2.53;2.33;;;;;;;;;;4995351;28;20774;-48
2023/09/15 01:37:01;;;;;;;2.40;2.15;;;;;;;;;;4994485;28;20196;-48
2023/09/15 01:39:30;;;;;;;2.70;2.10;;;;;;;;;;4995015;28;20189;-48
2023/09/15 01:41:56;;;;;;;1.92;1.80;;;;;;;;;;4989343;28;20182;-48
2023/09/15 01:44:22;;;;;;;2.35;2.10;;;;;;;;;;5000441;28;20223;-48
2023/09/15 01:46:48;;;;;;;3.85;2.03;;;;;;;;;;4992983;28;20169;-48
2023/09/15 01:49:14;;;;;;;2.25;2.03;;;;;;;;;;4987429;28;20240;-48
2023/09/15 01:51:40;;;;;;;2.33;2.08;;;;;;;;;;4993651;28;20172;-48
2023/09/15 01:54:06;;;;;;;1.98;1.85;;;;;;;;;;4991573;28;20181;-48
2023/09/15 01:56:32;;;;;;;2.30;2.10;;;;;;;;;;4999563;28;20192;-48
2023/09/15 01:58:58;;;;;;;2.08;1.98;;;;;;;;;;5005379;28;20186;-48
2023/09/15 02:01:24;;;;;;;1.77;1.67;;;;;;;;;;4986999;28;20569;-48
2023/09/15 02:03:50;;;;;;;2.90;2.15;;;;;;;;;;4989350;28;20589;-48
2023/09/15 02:06:16;;;;;;;2.25;2.05;;;;;;;;;;4995645;28;20588;-48
2023/09/15 02:08:43;;;;;;;3.08;1.98;;;;;;;;;;4999040;28;20181;-48
2023/09/15 02:11:09;;;;;;;1.95;1.60;;;;;;;;;;4996682;28;20169;-48
2023/09/15 02:13:36;;;;;;;2.30;1.80;;;;;;;;;;4997117;28;20308;-48
2023/09/15 02:16:02;;;;;;;2.65;2.00;;;;;;;;;;4990803;28;20296;-48
2023/09/15 02:18:29;;;;;;;1.90;1.80;;;;;;;;;;4992080;28;20200;-48
2023/09/15 02:20:55;;;;;;;1.60;1.50;;;;;;;;;;4995373;28;20200;-48
2023/09/15 02:23:21;;;;;;;1.83;1.73;;;;;;;;;;4991464;28;20228;-48
2023/09/15 02:25:47;;;;;;;2.47;2.10;;;;;;;;;;4995455;28;20638;-48
2023/09/15 02:28:13;;;;;;;1.80;1.70;;;;;;;;;;5005495;28;20268;-48
2023/09/15 02:30:39;;;;;;;1.80;1.70;;;;;;;;;;5000356;28;20204;-48
2023/09/15 02:33:05;;;;;;;1.88;1.67;;;;;;;;;;4998438;28;20235;-48
2023/09/15 02:35:31;;;;;;;3.05;1.88;;;;;;;;;;4995636;28;20189;-48
2023/09/15 02:37:57;;;;;;;1.90;1.77;;;;;;;;;;4992859;28;20189;-48
2023/09/15 02:40:26;;;;;;;1.70;1.60;;;;;;;;;;4992442;28;20443;-48
2023/09/15 02:42:52;;;;;;;2.75;1.70;;;;;;;;;;4992266;28;20183;-48
2023/09/15 02:45:18;;;;;;;2.08;1.88;;;;;;;;;;4996809;28;20197;-48
2023/09/15 02:47:44;;;;;;;1.80;1.63;;;;;;;;;;4997444;28;20173;-48
2023/09/15 02:50:10;;;;;;;1.52;1.40;;;;;;;;;;4986476;28;20233;-48
2023/09/15 02:52:36;;;;;;;2.13;1.92;;;;;;;;;;4995132;28;20240;-48
2023/09/15 02:55:04;;;;;;;1.95;1.70;;;;;;;;;;4992392;28;20213;-48
2023/09/15 02:57:31;;;;;;;2.90;1.80;;;;;;;;;;5005792;28;20206;-48
2023/09/15 02:59:57;;;;;;;2.95;1.70;;;;;;;;;;5009912;28;20496;-48
2023/09/15 03:02:22;;;;;;;1.63;1.52;;;;;;;;;;4986915;28;20194;-48
2023/09/15 03:04:49;;;;;;;3.42;1.60;;;;;;;;;;4997004;28;20292;-48
2023/09/15 03:07:15;;;;;;;1.80;1.70;;;;;;;;;;4993659;28;20264;-48
2023/09/15 03:09:41;;;;;;;4.07;1.52;;;;;;;;;;4986783;28;20186;-48
2023/09/15 03:12:07;;;;;;;2.63;1.75;;;;;;;;;;4994908;28;20178;-44
2023/09/15 03:14:33;;;;;;;3.30;1.60;;;;;;;;;;4996071;28;20189;-45
2023/09/15 03:16:59;;;;;;;1.58;1.48;;;;;;;;;;4993068;28;20201;-45
2023/09/15 03:19:26;;;;;;;6.78;1.80;;;;;;;;;;4989356;28;20315;-48
2023/09/15 03:21:52;;;;;;;2.00;1.80;;;;;;;;;;4992582;28;20204;-47
2023/09/15 03:24:18;;;;;;;3.33;1.80;;;;;;;;;;4996485;28;20236;-47
2023/09/15 03:26:44;;;;;;;3.40;1.67;;;;;;;;;;5004223;28;20479;-47
2023/09/15 03:29:10;;;;;;;2.03;1.50;;;;;;;;;;5011223;28;20181;-47
2023/09/15 03:31:36;;;;;;;2.58;1.77;;;;;;;;;;4997873;28;20285;-47
2023/09/15 03:34:02;;;;;;;6.80;2.28;;;;;;;;;;4994475;28;20580;-47
2023/09/15 03:36:31;;;;;;;7.55;2.13;;;;;;;;;;4992649;28;20631;-47
2023/09/15 03:38:57;;;;;;;1.95;1.73;;;;;;;;;;4996094;28;20185;-47
2023/09/15 03:41:27;;;;;;;4.47;1.95;;;;;;;;;;4987310;28;20185;-47
2023/09/15 03:43:53;;;;;;;6.25;2.03;;;;;;;;;;4993874;28;20561;-47
2023/09/15 03:46:19;;;;;;;10.40;2.58;;;;;;;;;;4992559;28;20209;-46
2023/09/15 03:48:45;;;;;;;24.75;4.90;;;;;;;;;;4990331;28;20252;-49
2023/09/15 03:51:11;;;;;;;38.95;6.15;;;;;;;;;;4994570;28;20218;-47
2023/09/15 03:53:37;;;;;;;24.80;5.45;;;;;;;;;;4991291;28;20193;-54
2023/09/15 03:56:03;;;;;;;22.30;4.75;;;;;;;;;;4995101;28;20492;-57
2023/09/15 03:58:29;;;;;;;20.38;4.85;;;;;;;;;;5006016;28;20196;-57
2023/09/15 04:00:55;;;;;;;20.55;5.07;;;;;;;;;;4995371;28;20203;-57
2023/09/15 04:03:21;;;;;;;16.90;4.22;;;;;;;;;;4995361;28;20220;-57
2023/09/15 04:05:47;;;;;;;15.25;3.65;;;;;;;;;;4987530;28;20219;-57
2023/09/15 04:08:13;;;;;;;14.68;4.45;;;;;;;;;;4988345;28;20189;-57
2023/09/15 04:10:39;;;;;;;19.73;4.80;;;;;;;;;;4994087;28;20231;-57
2023/09/15 04:13:05;;;;;;;15.52;3.78;;;;;;;;;;4999593;28;20177;-57
2023/09/15 04:15:31;;;;;;;19.02;3.80;;;;;;;;;;4995868;28;20632;-57
2023/09/15 04:17:57;;;;;;;16.02;3.85;;;;;;;;;;4990090;28;20187;-57
2023/09/15 04:20:23;;;;;;;12.43;3.35;;;;;;;;;;4987473;28;20477;-57
2023/09/15 04:22:49;;;;;;;12.70;3.60;;;;;;;;;;4991018;28;20197;-58
2023/09/15 04:25:16;;;;;;;8.18;3.45;;;;;;;;;;4988578;28;20205;-57
2023/09/15 04:27:42;;;;;;;13.90;3.60;;;;;;;;;;5004156;28;20301;-57
2023/09/15 04:30:09;;;;;;;12.32;3.50;;;;;;;;;;4999716;28;20260;-57
2023/09/15 04:32:35;;;;;;;7.00;2.67;;;;;;;;;;4985906;28;20463;-57
2023/09/15 04:35:01;;;;;;;11.77;3.35;;;;;;;;;;4993296;28;20189;-57
2023/09/15 04:37:27;;;;;;;9.77;2.95;;;;;;;;;;4992030;28;20267;-57
2023/09/15 04:39:54;;;;;;;7.30;2.92;;;;;;;;;;4995640;28;20190;-57
2023/09/15 04:42:20;;;;;;;9.57;2.60;;;;;;;;;;4986071;28;20181;-57
2023/09/15 04:44:46;;;;;;;9.65;3.25;;;;;;;;;;4992205;28;20262;-57
2023/09/15 04:47:29;;;;;;;6.72;2.70;;;;;;;;;;4993193;28;20187;-57
2023/09/15 04:49:55;;;;;;;6.57;2.28;;;;;;;;;;4990360;28;20205;-57
2023/09/15 04:52:20;;;;;;;9.30;2.97;;;;;;;;;;4988764;28;20177;-57
2023/09/15 04:54:46;;;;;;;5.93;2.45;;;;;;;;;;4994336;28;20575;-57
2023/09/15 04:57:12;;;;;;;5.20;2.63;;;;;;;;;;5009042;28;20184;-57
2023/09/15 04:59:38;;;;;;;5.93;2.13;;;;;;;;;;4996859;28;20248;-57
2023/09/15 05:02:06;;;;;;;5.10;2.33;;;;;;;;;;4991789;28;20185;-57
2023/09/15 05:04:32;;;;;;;9.40;2.50;;;;;;;;;;4994911;28;20211;-57
2023/09/15 05:06:58;;;;;;;4.43;2.25;;;;;;;;;;4989754;28;20188;-57
2023/09/15 05:09:24;;;;;;;6.15;2.20;;;;;;;;;;4988179;28;20424;-57
2023/09/15 05:11:52;;;;;;;4.15;2.05;;;;;;;;;;4989241;28;20189;-57
2023/09/15 05:14:18;;;;;;;4.82;1.98;;;;;;;;;;4994161;28;20173;-57
2023/09/15 05:16:44;;;;;;;4.72;2.20;;;;;;;;;;4994989;28;20234;-56
2023/09/15 05:19:10;;;;;;;5.57;2.63;;;;;;;;;;4990981;28;20212;-56
2023/09/15 05:21:36;;;;;;;4.80;2.40;;;;;;;;;;5003643;28;20188;-56
2023/09/15 05:24:02;;;;;;;4.30;2.03;;;;;;;;;;5000520;28;20238;-56
2023/09/15 05:26:28;;;;;;;6.82;2.55;;;;;;;;;;5005388;28;20469;-56
2023/09/15 05:28:55;;;;;;;3.33;1.95;;;;;;;;;;5009533;28;20204;-56
2023/09/15 05:31:25;;;;;;;2.63;2.03;;;;;;;;;;4994303;28;20676;-57
2023/09/15 05:33:52;;;;;;;6.90;2.25;;;;;;;;;;4991701;28;20193;-57
2023/09/15 05:36:18;;;;;;;3.90;2.13;;;;;;;;;;4991167;28;20188;-57
2023/09/15 05:38:43;;;;;;;3.58;2.10;;;;;;;;;;4994885;28;20185;-57
2023/09/15 05:41:09;;;;;;;2.72;1.70;;;;;;;;;;4993184;28;20312;-57
2023/09/15 05:43:35;;;;;;;4.65;2.28;;;;;;;;;;4997251;28;20243;-56
2023/09/15 05:46:01;;;;;;;4.20;2.42;;;;;;;;;;4994693;28;20181;-56
2023/09/15 05:48:27;;;;;;;5.28;2.28;;;;;;;;;;4992270;28;20186;-56
2023/09/15 05:50:53;;;;;;;4.07;2.10;;;;;;;;;;4993686;28;20185;-57
2023/09/15 05:53:19;;;;;;;6.00;2.35;;;;;;;;;;4993721;28;20573;-57
2023/09/15 05:55:45;;;;;;;3.90;2.17;;;;;;;;;;4998561;28;20184;-57
2023/09/15 05:58:11;;;;;;;3.15;2.15;;;;;;;;;;5003787;28;20239;-57
2023/09/15 06:00:37;;;;;;;4.18;2.40;;;;;;;;;;4994289;28;20177;-57
2023/09/15 06:03:03;;;;;;;4.00;1.73;;;;;;;;;;4996843;28;20182;-57
2023/09/15 06:05:29;;;;;;;2.38;2.10;;;;;;;;;;4990054;28;20456;-57
2023/09/15 06:07:55;;;;;;;2.63;2.10;;;;;;;;;;4997259;28;20189;-57
2023/09/15 06:10:22;;;;;;;4.75;2.00;;;;;;;;;;4992039;28;20181;-56
2023/09/15 06:12:51;;;;;;;2.30;2.10;;;;;;;;;;4993718;28;20181;-56
2023/09/15 06:15:18;;;;;;;1.98;1.75;;;;;;;;;;4989173;28;20201;-56
2023/09/15 06:17:44;;;;;;;2.60;1.90;;;;;;;;;;4994516;28;20194;-56
2023/09/15 06:20:10;;;;;;;2.38;2.00;;;;;;;;;;4994195;28;20185;-56
2023/09/15 06:22:36;;;;;;;6.18;2.20;;;;;;;;;;4998790;28;20579;-56
2023/09/15 06:25:02;;;;;;;2.60;1.88;;;;;;;;;;4992881;28;20220;-56
2023/09/15 06:27:32;;;;;;;3.22;2.05;;;;;;;;;;5012177;28;20322;-56
2023/09/15 06:29:58;;;;;;;4.38;1.63;;;;;;;;;;4997407;28;20177;-56
2023/09/15 06:32:24;;;;;;;2.47;1.65;;;;;;;;;;4995752;28;20231;-56
2023/09/15 06:34:50;;;;;;;3.03;1.88;;;;;;;;;;4997377;28;20615;-56
2023/09/15 06:37:16;;;;;;;3.75;1.60;;;;;;;;;;4997660;28;20585;-56
2023/09/15 06:39:42;;;;;;;2.67;1.70;;;;;;;;;;4993090;28;20239;-56
2023/09/15 06:42:08;;;;;;;3.78;2.22;;;;;;;;;;4996751;28;20276;-56
2023/09/15 06:44:35;;;;;;;3.78;2.05;;;;;;;;;;4992520;28;20209;-56
2023/09/15 06:47:01;;;;;;;2.40;1.95;;;;;;;;;;4995330;28;20185;-56
2023/09/15 06:49:27;;;;;;;2.10;1.70;;;;;;;;;;4980415;28;20189;-56
2023/09/15 06:51:54;;;;;;;3.17;1.95;;;;;;;;;;4993688;28;20181;-56
2023/09/15 06:54:21;;;;;;;3.95;1.90;;;;;;;;;;4993954;28;20185;-56
2023/09/15 06:56:47;;;;;;;3.92;2.10;;;;;;;;;;4995924;28;20173;-57
2023/09/15 06:59:13;;;;;;;1.95;1.85;;;;;;;;;;5010203;28;20193;-57
2023/09/15 07:01:39;;;;;;;4.07;1.52;;;;;;;;;;4988392;28;20185;-57
2023/09/15 07:04:05;;;;;;;1.70;1.50;;;;;;;;;;4993689;28;20207;-57
2023/09/15 07:06:31;;;;;;;2.35;1.80;;;;;;;;;;4988338;28;20193;-57
2023/09/15 07:08:58;;;;;;;3.65;1.95;;;;;;;;;;4995230;28;20235;-57
2023/09/15 07:11:24;;;;;;;1.85;1.60;;;;;;;;;;4989880;28;20251;-57
2023/09/15 07:13:50;;;;;;;2.00;1.80;;;;;;;;;;4997269;28;20193;-57
2023/09/15 07:16:15;;;;;;;3.10;2.17;;;;;;;;;;4992748;28;20288;-56
2023/09/15 07:18:41;;;;;;;3.42;2.17;;;;;;;;;;4994144;28;20529;-56
2023/09/15 07:21:08;;;;;;;3.55;1.98;;;;;;;;;;4997234;28;20575;-56
2023/09/15 07:23:34;;;;;;;2.00;1.80;;;;;;;;;;5003900;28;20204;-56
2023/09/15 07:26:00;;;;;;;4.25;2.00;;;;;;;;;;5001309;28;20196;-57
2023/09/15 07:28:26;;;;;;;2.15;1.95;;;;;;;;;;5016719;28;20181;-56
2023/09/15 07:30:52;;;;;;;3.50;2.15;;;;;;;;;;4993066;28;20190;-56
2023/09/15 07:33:18;;;;;;;2.28;2.08;;;;;;;;;;4997498;28;20219;-56
2023/09/15 07:35:43;;;;;;;1.92;1.80;;;;;;;;;;5004489;28;20268;-56
2023/09/15 07:38:09;;;;;;;2.08;1.88;;;;;;;;;;4996553;28;20181;-56
2023/09/15 07:40:35;;;;;;;1.80;1.70;;;;;;;;;;4996110;28;20189;-56
2023/09/15 07:43:01;;;;;;;2.92;1.90;;;;;;;;;;4997420;28;20460;-56
2023/09/15 07:45:27;;;;;;;2.05;1.83;;;;;;;;;;4990602;28;20220;-56
2023/09/15 07:47:53;;;;;;;2.42;2.22;;;;;;;;;;4993036;28;20182;-57
2023/09/15 07:50:20;;;;;;;2.70;1.90;;;;;;;;;;4986061;28;20181;-56
2023/09/15 07:52:46;;;;;;;2.40;1.88;;;;;;;;;;4993663;28;20457;-56
2023/09/15 07:55:12;;;;;;;2.58;1.90;;;;;;;;;;4995269;28;20243;-56
2023/09/15 07:57:39;;;;;;;2.30;2.10;;;;;;;;;;5014028;28;20294;-56
2023/09/15 08:00:06;;;;;;;2.20;2.00;;;;;;;;;;4991741;28;20188;-56
2023/09/15 08:02:32;;;;;;;1.80;1.70;;;;;;;;;;4988461;28;20271;-56
2023/09/15 08:04:58;;;;;;;2.50;1.90;;;;;;;;;;5005287;28;20214;-56
2023/09/15 08:07:24;;;;;;;1.70;1.55;;;;;;;;;;4987409;28;20189;-56
2023/09/15 08:09:50;;;;;;;2.78;1.50;;;;;;;;;;4994951;28;20187;-56
2023/09/15 08:12:19;;;;;;;1.63;1.52;;;;;;;;;;4998028;28;20203;-56
2023/09/15 08:14:45;;;;;;;2.08;1.63;;;;;;;;;;4993757;28;20252;-56
2023/09/15 08:17:12;;;;;;;1.42;1.33;;;;;;;;;;4989549;28;20185;-56
2023/09/15 08:19:38;;;;;;;2.05;1.50;;;;;;;;;;4990263;28;20502;-56
2023/09/15 08:22:05;;;;;;;2.88;1.95;;;;;;;;;;4995705;28;20185;-56
2023/09/15 08:24:31;;;;;;;1.63;1.50;;;;;;;;;;4996318;28;20292;-56
2023/09/15 08:26:57;;;;;;;2.40;1.70;;;;;;;;;;4998511;28;20548;-56
2023/09/15 08:29:23;;;;;;;1.33;1.23;;;;;;;;;;5004439;28;20271;-56
2023/09/15 08:31:49;;;;;;;1.77;1.40;;;;;;;;;;4985373;28;20177;-56
2023/09/15 08:34:15;;;;;;;1.95;1.52;;;;;;;;;;4995001;28;20277;-56
2023/09/15 08:36:41;;;;;;;1.88;1.33;;;;;;;;;;4995879;28;20185;-56
2023/09/15 08:39:07;;;;;;;1.60;1.50;;;;;;;;;;4993897;28;20189;-56
2023/09/15 08:41:40;;;;;;;1.38;1.27;;;;;;;;;;4992355;28;20195;-56
2023/09/15 08:44:07;;;;;;;1.52;1.35;;;;;;;;;;4995640;28;20324;-56
2023/09/15 08:46:35;;;;;;;1.60;1.30;;;;;;;;;;4989662;28;20177;-56
2023/09/15 08:49:01;;;;;;;1.55;1.45;;;;;;;;;;4991406;28;20612;-56
2023/09/15 08:51:28;;;;;;;1.60;1.50;;;;;;;;;;4993844;28;20173;-56
2023/09/15 08:53:57;;;;;;;2.15;1.33;;;;;;;;;;4992477;28;20274;-56
2023/09/15 08:56:24;;;;;;;1.45;1.35;;;;;;;;;;5000739;28;20176;-56
2023/09/15 08:58:50;;;;;;;3.88;1.52;;;;;;;;;;5008926;28;20271;-55
2023/09/15 09:01:18;;;;;;;2.30;1.60;;;;;;;;;;4989137;28;20452;-55
2023/09/15 09:03:44;;;;;;;1.75;1.38;;;;;;;;;;4992526;28;20304;-55
2023/09/15 09:06:11;;;;;;;1.50;1.40;;;;;;;;;;4983787;28;20187;-55
2023/09/15 09:08:41;;;;;;;1.67;1.50;;;;;;;;;;4990276;28;20188;-55
2023/09/15 09:11:07;;;;;;;2.35;1.55;;;;;;;;;;5005517;28;20188;-55
2023/09/15 09:13:33;;;;;;;1.80;1.70;;;;;;;;;;5008665;28;20184;-55
2023/09/15 09:15:59;;;;;;;2.47;1.67;;;;;;;;;;4981692;28;20231;-56
2023/09/15 09:18:26;;;;;;;1.35;1.25;;;;;;;;;;4995598;28;20200;-56
2023/09/15 09:20:52;;;;;;;1.50;1.40;;;;;;;;;;4985982;28;20189;-56
2023/09/15 09:23:19;;;;;;;1.50;1.33;;;;;;;;;;4994052;28;20204;-56
2023/09/15 09:25:46;;;;;;;1.50;1.40;;;;;;;;;;4993025;28;20205;-55
2023/09/15 09:28:13;;;;;;;1.45;1.35;;;;;;;;;;5011988;28;20553;-55
2023/09/15 09:30:39;;;;;;;1.67;1.33;;;;;;;;;;4993827;28;20228;-55
2023/09/15 09:33:08;;;;;;;1.50;1.40;;;;;;;;;;4992328;28;20188;-55
2023/09/15 09:35:34;;;;;;;1.83;1.40;;;;;;;;;;4995504;28;20559;-55
2023/09/15 09:38:01;;;;;;;1.67;1.58;;;;;;;;;;4998328;28;20264;-56
2023/09/15 09:40:27;;;;;;;1.50;1.40;;;;;;;;;;4994620;28;20494;-55
2023/09/15 09:42:54;;;;;;;1.30;1.20;;;;;;;;;;4995853;28;20192;-55
2023/09/15 09:45:27;;;;;;;2.38;1.73;;;;;;;;;;4990227;28;20287;-55
2023/09/15 09:47:54;;;;;;;1.77;1.38;;;;;;;;;;4992422;28;20478;-55
2023/09/15 09:50:20;;;;;;;1.40;1.30;;;;;;;;;;4984852;28;20494;-55
2023/09/15 09:52:47;;;;;;;2.13;1.40;;;;;;;;;;4998238;28;20193;-55
2023/09/15 09:55:14;;;;;;;1.70;1.60;;;;;;;;;;4990753;28;20193;-55
2023/09/15 09:57:40;;;;;;;1.42;1.33;;;;;;;;;;5008623;28;20184;-55
2023/09/15 10:00:09;;;;;;;1.60;1.50;;;;;;;;;;5003166;28;20193;-55
2023/09/15 10:02:36;;;;;;;1.40;1.30;;;;;;;;;;4985967;28;20185;-55
2023/09/15 10:05:03;;;;;;;1.58;1.48;;;;;;;;;;4984179;28;20209;-55
2023/09/15 10:07:29;;;;;;;1.52;1.42;;;;;;;;;;4995923;28;20458;-55
2023/09/15 10:09:55;;;;;;;2.35;1.77;;;;;;;;;;4993494;28;20207;-55
2023/09/15 10:12:23;;;;;;;1.88;1.73;;;;;;;;;;4986676;28;20235;-55
2023/09/15 10:14:49;;;;;;;1.55;1.40;;;;;;;;;;4984892;28;20548;-55
2023/09/15 10:17:18;;;;;;;1.58;1.48;;;;;;;;;;4988400;28;20181;-55
2023/09/15 10:19:46;;;;;;;1.60;1.50;;;;;;;;;;4981705;28;20429;-55
2023/09/15 10:22:12;;;;;;;2.10;1.45;;;;;;;;;;4987801;28;20483;-55
2023/09/15 10:24:42;;;;;;;1.48;1.38;;;;;;;;;;4985407;28;21187;-55
2023/09/15 10:27:08;;;;;;;1.83;1.48;;;;;;;;;;5005300;28;20184;-55
2023/09/15 10:29:34;;;;;;;1.30;1.20;;;;;;;;;;4988893;28;20488;-55
2023/09/15 10:32:04;;;;;;;1.77;1.40;;;;;;;;;;4981254;28;20198;-55
2023/09/15 10:34:30;;;;;;;1.58;1.48;;;;;;;;;;4985010;28;20177;-55
2023/09/15 10:36:59;;;;;;;1.52;1.38;;;;;;;;;;4991577;28;20596;-55
2023/09/15 10:39:35;;;;;;;1.33;1.20;;;;;;;;;;4991182;28;20509;-55
2023/09/15 10:42:13;;;;;;;4.32;1.90;;;;;;;;;;4989184;28;20189;-55
2023/09/15 10:44:41;;;;;;;1.38;1.27;;;;;;;;;;4991503;28;20240;-55
2023/09/15 10:47:20;;;;;;;1.48;1.38;;;;;;;;;;4996493;28;20173;-55
2023/09/15 10:49:53;;;;;;;1.58;1.40;;;;;;;;;;4999572;28;20584;-55
2023/09/15 10:52:31;;;;;;;1.60;1.50;;;;;;;;;;4993678;28;20181;-55
2023/09/15 10:54:57;;;;;;;1.98;1.30;;;;;;;;;;4994905;28;20189;-55
2023/09/15 10:57:23;;;;;;;1.30;1.20;;;;;;;;;;5011455;28;20230;-55
2023/09/15 10:59:49;;;;;;;1.73;1.38;;;;;;;;;;4997240;28;20193;-55
2023/09/15 11:02:15;;;;;;;1.80;1.52;;;;;;;;;;4992628;28;20208;-55
2023/09/15 11:04:41;;;;;;;4.32;1.80;;;;;;;;;;4995304;28;20228;-55
2023/09/15 11:07:08;;;;;;;2.00;1.20;;;;;;;;;;4996226;28;20316;-55
2023/09/15 11:09:34;;;;;;;4.82;1.80;;;;;;;;;;4984020;28;20507;-55
2023/09/15 11:12:02;;;;;;;5.78;1.60;;;;;;;;;;4997191;28;20177;-55
2023/09/15 11:14:28;;;;;;;2.15;1.50;;;;;;;;;;4994033;28;20181;-55
2023/09/15 11:16:56;;;;;;;4.30;1.85;;;;;;;;;;4994449;28;20191;-55
2023/09/15 11:19:26;;;;;;;4.43;1.70;;;;;;;;;;5003503;28;20813;-55
2023/09/15 11:21:52;;;;;;;2.83;1.45;;;;;;;;;;4981538;28;20243;-54
2023/09/15 11:24:18;;;;;;;1.45;1.35;;;;;;;;;;5009314;28;20512;-54
2023/09/15 11:26:48;;;;;;;4.65;2.03;;;;;;;;;;5008602;28;20234;-55
2023/09/15 11:29:14;;;;;;;3.60;1.52;;;;;;;;;;5011960;28;20583;-55
2023/09/15 11:31:41;;;;;;;2.75;1.63;;;;;;;;;;4993048;28;20224;-54
2023/09/15 11:34:08;;;;;;;1.90;1.52;;;;;;;;;;4991021;28;20189;-54
2023/09/15 11:36:38;;;;;;;4.78;2.05;;;;;;;;;;4990063;28;20185;-54
2023/09/15 11:39:07;;;;;;;1.92;1.65;;;;;;;;;;5004546;28;20180;-54
2023/09/15 11:41:33;;;;;;;1.70;1.40;;;;;;;;;;4994472;28;20227;-54
2023/09/15 11:43:59;;;;;;;5.63;1.75;;;;;;;;;;4992088;28;20212;-54
2023/09/15 11:46:25;;;;;;;2.08;1.60;;;;;;;;;;4994878;28;20184;-54
2023/09/15 11:48:52;;;;;;;3.05;1.90;;;;;;;;;;4990269;28;20484;-54
2023/09/15 11:51:18;;;;;;;1.83;1.50;;;;;;;;;;4989905;28;20204;-54
2023/09/15 11:53:44;;;;;;;2.30;1.77;;;;;;;;;;5000131;28;20607;-54
2023/09/15 11:56:18;;;;;;;1.60;1.50;;;;;;;;;;4998419;28;20733;-54
2023/09/15 11:58:47;;;;;;;1.85;1.63;;;;;;;;;;5004895;28;20180;-54
2023/09/15 12:01:13;;;;;;;4.30;1.70;;;;;;;;;;4987448;28;20177;-54
2023/09/15 12:03:39;;;;;;;2.45;1.60;;;;;;;;;;4994696;28;20247;-54
2023/09/15 12:06:05;;;;;;;2.35;1.48;;;;;;;;;;4990824;28;20457;-54
2023/09/15 12:08:31;;;;;;;1.88;1.77;;;;;;;;;;4993712;28;20181;-54
2023/09/15 12:10:57;;;;;;;2.25;1.70;;;;;;;;;;4992286;28;20435;-54
2023/09/15 12:13:23;;;;;;;2.10;1.60;;;;;;;;;;4988340;28;20200;-54
2023/09/15 12:15:49;;;;;;;2.53;1.80;;;;;;;;;;4984864;28;20201;-54
2023/09/15 12:18:15;;;;;;;2.65;1.77;;;;;;;;;;4995279;28;20438;-54
2023/09/15 12:20:47;;;;;;;2.95;1.67;;;;;;;;;;4988083;28;20502;-54
2023/09/15 12:23:13;;;;;;;1.50;1.40;;;;;;;;;;5003451;28;20587;-54
2023/09/15 12:25:39;;;;;;;2.00;1.85;;;;;;;;;;4983295;28;20213;-54
2023/09/15 12:28:06;;;;;;;1.60;1.50;;;;;;;;;;5006114;28;20174;-54
2023/09/15 12:30:34;;;;;;;1.60;1.50;;;;;;;;;;4998081;28;20189;-54
2023/09/15 12:33:00;;;;;;;4.65;1.70;;;;;;;;;;4994862;28;20545;-54
2023/09/15 12:35:26;;;;;;;2.45;1.77;;;;;;;;;;4991952;28;20616;-54
2023/09/15 12:37:53;;;;;;;1.60;1.50;;;;;;;;;;4996803;28;20178;-54
2023/09/15 12:40:22;;;;;;;2.22;1.70;;;;;;;;;;5006580;28;20169;-54
2023/09/15 12:42:48;;;;;;;1.60;1.50;;;;;;;;;;4994344;28;20181;-54
2023/09/15 12:45:14;;;;;;;1.88;1.50;;;;;;;;;;4986502;28;20212;-54
2023/09/15 12:47:40;;;;;;;2.15;1.95;;;;;;;;;;4989924;28;20177;-53
2023/09/15 12:50:06;;;;;;;1.60;1.50;;;;;;;;;;4985944;28;20185;-53
2023/09/15 12:52:32;;;;;;;2.10;1.77;;;;;;;;;;4993750;28;20422;-53
2023/09/15 12:54:59;;;;;;;1.88;1.58;;;;;;;;;;5005116;28;20272;-53
2023/09/15 12:57:25;;;;;;;1.60;1.50;;;;;;;;;;5011291;28;20200;-53
2023/09/15 12:59:50;;;;;;;2.00;1.67;;;;;;;;;;5005545;28;20185;-53
2023/09/15 13:02:17;;;;;;;2.90;1.88;;;;;;;;;;4994398;28;20185;-53
2023/09/15 13:04:44;;;;;;;1.70;1.60;;;;;;;;;;4989273;28;20236;-53
2023/09/15 13:07:11;;;;;;;1.40;1.30;;;;;;;;;;4990190;28;20696;-53
2023/09/15 13:09:37;;;;;;;1.90;1.52;;;;;;;;;;4993110;28;20196;-53
2023/09/15 13:12:04;;;;;;;1.67;1.55;;;;;;;;;;4992000;28;20177;-53
2023/09/15 13:14:30;;;;;;;1.50;1.40;;;;;;;;;;4985517;28;20219;-53
2023/09/15 13:16:56;;;;;;;1.85;1.63;;;;;;;;;;4984364;28;20277;-53
2023/09/15 13:19:24;;;;;;;2.00;1.80;;;;;;;;;;4987112;28;20199;-53
2023/09/15 13:21:50;;;;;;;2.50;2.00;;;;;;;;;;4994927;28;20184;-53
2023/09/15 13:24:16;;;;;;;2.83;1.60;;;;;;;;;;4993479;28;20216;-53
2023/09/15 13:26:42;;;;;;;2.05;1.75;;;;;;;;;;5006026;28;20185;-54
2023/09/15 13:29:10;;;;;;;2.13;1.70;;;;;;;;;;5004186;28;20186;-53
2023/09/15 13:31:36;;;;;;;1.63;1.40;;;;;;;;;;4994048;28;20177;-53
2023/09/15 13:34:02;;;;;;;1.77;1.67;;;;;;;;;;4995204;28;20181;-53
2023/09/15 13:36:28;;;;;;;2.20;1.52;;;;;;;;;;4995316;28;20232;-53
2023/09/15 13:38:54;;;;;;;2.42;1.92;;;;;;;;;;4989833;28;20579;-53
2023/09/15 13:41:20;;;;;;;2.05;1.60;;;;;;;;;;4993047;28;20185;-53
2023/09/15 13:43:47;;;;;;;2.20;2.00;;;;;;;;;;4990160;28;20240;-53
2023/09/15 13:46:13;;;;;;;2.20;1.90;;;;;;;;;;4992435;28;20191;-53
2023/09/15 13:48:39;;;;;;;1.85;1.73;;;;;;;;;;4986555;28;20190;-53
2023/09/15 13:51:05;;;;;;;2.95;1.45;;;;;;;;;;4982909;28;20178;-53
2023/09/15 13:53:36;;;;;;;1.95;1.75;;;;;;;;;;4991557;28;20243;-53
2023/09/15 13:56:03;;;;;;;2.10;1.80;;;;;;;;;;4994934;28;20563;-53
2023/09/15 13:58:29;;;;;;;1.75;1.65;;;;;;;;;;5004098;28;20184;-53
2023/09/15 14:01:00;;;;;;;2.10;1.60;;;;;;;;;;4992454;28;20189;-53
2023/09/15 14:03:26;;;;;;;2.15;1.75;;;;;;;;;;4999024;28;20193;-53
2023/09/15 14:05:53;;;;;;;2.08;1.67;;;;;;;;;;4995883;28;20174;-52
2023/09/15 14:08:19;;;;;;;1.90;1.63;;;;;;;;;;4993461;28;20169;-51
2023/09/15 14:10:45;;;;;;;1.80;1.70;;;;;;;;;;5002013;28;20177;-52
2023/09/15 14:13:14;;;;;;;1.77;1.67;;;;;;;;;;4995868;28;20466;-52
2023/09/15 14:15:41;;;;;;;2.10;1.85;;;;;;;;;;4994005;28;20205;-52
2023/09/15 14:18:06;;;;;;;2.25;1.90;;;;;;;;;;4998906;28;20774;-52
2023/09/15 14:20:32;;;;;;;3.15;1.90;;;;;;;;;;4995890;28;20185;-52
2023/09/15 14:22:58;;;;;;;1.95;1.70;;;;;;;;;;4996166;28;20193;-52
2023/09/15 14:25:24;;;;;;;1.98;1.77;;;;;;;;;;4997627;28;20213;-52
2023/09/15 14:27:50;;;;;;;1.95;1.80;;;;;;;;;;5017926;28;20180;-51
2023/09/15 14:30:17;;;;;;;1.95;1.80;;;;;;;;;;4996318;28;20201;-52
2023/09/15 14:32:43;;;;;;;3.58;2.20;;;;;;;;;;4997580;28;20490;-52
2023/09/15 14:35:09;;;;;;;2.53;1.92;;;;;;;;;;4988202;28;20466;-52
2023/09/15 14:37:36;;;;;;;3.63;1.95;;;;;;;;;;4991686;28;20244;-52
2023/09/15 14:40:09;;;;;;;1.95;1.75;;;;;;;;;;4994439;28;20271;-52